sensor_id;sensor_type;location;lat;lon;timestamp;temperature;humidity
13850;DHT22;6995;52.618;13.488;2023-02-27T00:16:11;-1.50;99.90
13850;DHT22;6995;52.618;13.488;2023-02-27T00:22:44;-1.60;99.90
13850;DHT22;6995;52.618;13.488;2023-02-27T00:33:09;-1.70;99.90
13850;DHT22;6995;52.618;13.488;2023-02-27T00:36:02;-1.80;99.90
13850;DHT22;6995;52.618;13.488;2023-02-27T00:45:07;-1.90;99.90
13850;DHT22;6995;52.618;13.488;2023-02-27T00:51:08;-2.00;99.90
13850;DHT22;6995;52.618;13.488;2023-02-27T00:53:41;-2.00;99.90
13850;DHT22;6995;52.618;13.488;2023-02-27T00:56:07;-2.00;99.90
13850;DHT22;6995;52.618;13.488;2023-02-27T00:58:42;-2.00;99.90
13850;DHT22;6995;52.618;13.488;2023-02-27T01:01:30;-2.00;99.90
13850;DHT22;6995;52.618;13.488;2023-02-27T01:04:06;-2.00;99.90
13850;DHT22;6995;52.618;13.488;2023-02-27T01:06:32;-2.00;99.90
13850;DHT22;6995;52.618;13.488;2023-02-27T01:08:58;-2.10;99.90
13850;DHT22;6995;52.618;13.488;2023-02-27T01:11:24;-2.10;99.90
13850;DHT22;6995;52.618;13.488;2023-02-27T01:13:49;-2.20;1.00
13850;DHT22;6995;52.618;13.488;2023-02-27T01:16:15;-2.20;1.00
13850;DHT22;6995;52.618;13.488;2023-02-27T01:18:41;-2.20;1.00
13850;DHT22;6995;52.618;13.488;2023-02-27T01:21:09;-2.20;1.00
13850;DHT22;6995;52.618;13.488;2023-02-27T01:23:35;-2.20;1.00
13850;DHT22;6995;52.618;13.488;2023-02-27T01:26:00;-2.20;1.00
13850;DHT22;6995;52.618;13.488;2023-02-27T01:28:28;-2.20;1.00
13850;DHT22;6995;52.618;13.488;2023-02-27T01:30:54;-2.20;1.00
13850;DHT22;6995;52.618;13.488;2023-02-27T01:33:20;-2.20;1.00
13850;DHT22;6995;52.618;13.488;2023-02-27T01:35:53;-2.20;1.00
13850;DHT22;6995;52.618;13.488;2023-02-27T01:38:21;-2.30;1.00
13850;DHT22;6995;52.618;13.488;2023-02-27T01:40:46;-2.20;1.00
13850;DHT22;6995;52.618;13.488;2023-02-27T01:43:17;-2.30;1.00
13850;DHT22;6995;52.618;13.488;2023-02-27T01:45:52;-2.30;1.00
13850;DHT22;6995;52.618;13.488;2023-02-27T01:50:54;-2.30;1.00
13850;DHT22;6995;52.618;13.488;2023-02-27T01:53:24;-2.30;1.00
13850;DHT22;6995;52.618;13.488;2023-02-27T01:55:53;-2.30;1.00
13850;DHT22;6995;52.618;13.488;2023-02-27T01:58:20;-2.30;1.00
13850;DHT22;6995;52.618;13.488;2023-02-27T02:00:47;-2.40;1.00
13850;DHT22;6995;52.618;13.488;2023-02-27T02:03:33;-2.40;1.00
13850;DHT22;6995;52.618;13.488;2023-02-27T02:06:06;-2.40;1.00
13850;DHT22;6995;52.618;13.488;2023-02-27T02:08:38;-2.40;1.00
13850;DHT22;6995;52.618;13.488;2023-02-27T02:11:06;-2.50;1.00
13850;DHT22;6995;52.618;13.488;2023-02-27T02:13:33;-2.50;1.00
13850;DHT22;6995;52.618;13.488;2023-02-27T02:27:32;-2.50;1.00
13850;DHT22;6995;52.618;13.488;2023-02-27T02:50:18;-2.40;1.00
13850;DHT22;6995;52.618;13.488;2023-02-27T02:56:51;-2.40;1.00
13850;DHT22;6995;52.618;13.488;2023-02-27T02:59:25;-2.50;1.00
13850;DHT22;6995;52.618;13.488;2023-02-27T03:01:59;-2.50;1.00
13850;DHT22;6995;52.618;13.488;2023-02-27T03:04:48;-2.50;1.00
13850;DHT22;6995;52.618;13.488;2023-02-27T03:07:42;-2.50;1.00
13850;DHT22;6995;52.618;13.488;2023-02-27T03:10:14;-2.40;1.00
13850;DHT22;6995;52.618;13.488;2023-02-27T03:12:45;-2.40;1.00
13850;DHT22;6995;52.618;13.488;2023-02-27T03:15:20;-2.50;1.00
13850;DHT22;6995;52.618;13.488;2023-02-27T03:18:06;-2.50;1.00
13850;DHT22;6995;52.618;13.488;2023-02-27T03:20:38;-2.50;1.00
13850;DHT22;6995;52.618;13.488;2023-02-27T03:23:09;-2.50;1.00
13850;DHT22;6995;52.618;13.488;2023-02-27T03:25:36;-2.60;1.00
13850;DHT22;6995;52.618;13.488;2023-02-27T03:28:06;-2.60;1.00
13850;DHT22;6995;52.618;13.488;2023-02-27T03:30:51;-2.60;1.00
13850;DHT22;6995;52.618;13.488;2023-02-27T03:33:32;-2.60;1.00
13850;DHT22;6995;52.618;13.488;2023-02-27T03:46:43;-2.80;1.00
13850;DHT22;6995;52.618;13.488;2023-02-27T03:49:09;-2.80;1.00
13850;DHT22;6995;52.618;13.488;2023-02-27T03:51:35;-2.80;1.00
13850;DHT22;6995;52.618;13.488;2023-02-27T03:56:37;-2.80;1.00
13850;DHT22;6995;52.618;13.488;2023-02-27T03:59:03;-2.70;1.00
13850;DHT22;6995;52.618;13.488;2023-02-27T04:01:29;-2.80;1.00
13850;DHT22;6995;52.618;13.488;2023-02-27T04:04:00;-2.80;1.00
13850;DHT22;6995;52.618;13.488;2023-02-27T04:06:28;-2.80;1.00
13850;DHT22;6995;52.618;13.488;2023-02-27T04:15:13;-2.80;1.00
13850;DHT22;6995;52.618;13.488;2023-02-27T04:23:18;-2.80;1.00
13850;DHT22;6995;52.618;13.488;2023-02-27T04:29:01;-2.80;1.00
13850;DHT22;6995;52.618;13.488;2023-02-27T04:34:30;-2.80;1.00
13850;DHT22;6995;52.618;13.488;2023-02-27T04:37:25;-2.80;1.00
13850;DHT22;6995;52.618;13.488;2023-02-27T04:40:10;-2.80;1.00
13850;DHT22;6995;52.618;13.488;2023-02-27T04:42:40;-2.80;1.00
13850;DHT22;6995;52.618;13.488;2023-02-27T04:45:11;-2.80;1.00
13850;DHT22;6995;52.618;13.488;2023-02-27T04:47:46;-2.80;1.00
13850;DHT22;6995;52.618;13.488;2023-02-27T04:50:18;-2.80;1.00
13850;DHT22;6995;52.618;13.488;2023-02-27T04:52:53;-2.90;1.00
13850;DHT22;6995;52.618;13.488;2023-02-27T04:55:26;-2.90;1.00
13850;DHT22;6995;52.618;13.488;2023-02-27T04:57:58;-2.90;1.00
13850;DHT22;6995;52.618;13.488;2023-02-27T05:00:26;-2.90;1.00
13850;DHT22;6995;52.618;13.488;2023-02-27T05:03:00;-3.00;1.00
13850;DHT22;6995;52.618;13.488;2023-02-27T05:05:32;-3.00;1.00
13850;DHT22;6995;52.618;13.488;2023-02-27T05:08:02;-3.10;1.00
13850;DHT22;6995;52.618;13.488;2023-02-27T05:10:45;-3.10;1.00
13850;DHT22;6995;52.618;13.488;2023-02-27T05:13:28;-3.10;1.00
13850;DHT22;6995;52.618;13.488;2023-02-27T05:19:00;-3.10;1.00
13850;DHT22;6995;52.618;13.488;2023-02-27T05:21:36;-3.10;1.00
13850;DHT22;6995;52.618;13.488;2023-02-27T05:29:51;-3.20;1.00
13850;DHT22;6995;52.618;13.488;2023-02-27T05:32:38;-3.20;1.00
13850;DHT22;6995;52.618;13.488;2023-02-27T05:38:10;-3.20;1.00
13850;DHT22;6995;52.618;13.488;2023-02-27T05:40:51;-3.20;1.00
13850;DHT22;6995;52.618;13.488;2023-02-27T05:43:28;-3.20;1.00
13850;DHT22;6995;52.618;13.488;2023-02-27T05:46:09;-3.20;1.00
13850;DHT22;6995;52.618;13.488;2023-02-27T05:48:43;-3.20;1.00
13850;DHT22;6995;52.618;13.488;2023-02-27T05:51:12;-3.20;1.00
13850;DHT22;6995;52.618;13.488;2023-02-27T05:53:44;-3.10;1.00
13850;DHT22;6995;52.618;13.488;2023-02-27T05:56:21;-3.10;1.00
13850;DHT22;6995;52.618;13.488;2023-02-27T05:58:55;-3.10;1.00
13850;DHT22;6995;52.618;13.488;2023-02-27T06:01:23;-3.00;1.00
13850;DHT22;6995;52.618;13.488;2023-02-27T06:03:49;-3.10;1.00
13850;DHT22;6995;52.618;13.488;2023-02-27T06:06:17;-3.00;1.00
13850;DHT22;6995;52.618;13.488;2023-02-27T06:08:43;-3.00;1.00
13850;DHT22;6995;52.618;13.488;2023-02-27T06:11:09;-2.90;1.00
13850;DHT22;6995;52.618;13.488;2023-02-27T06:13:35;-2.90;1.00
13850;DHT22;6995;52.618;13.488;2023-02-27T06:16:05;-2.90;1.00
13850;DHT22;6995;52.618;13.488;2023-02-27T06:18:31;-2.90;1.00
13850;DHT22;6995;52.618;13.488;2023-02-27T06:20:57;-2.70;1.00
13850;DHT22;6995;52.618;13.488;2023-02-27T06:23:24;-2.60;1.00
13850;DHT22;6995;52.618;13.488;2023-02-27T06:25:49;-2.50;1.00
13850;DHT22;6995;52.618;13.488;2023-02-27T06:28:15;-2.40;1.00
13850;DHT22;6995;52.618;13.488;2023-02-27T06:30:40;-2.20;1.00
13850;DHT22;6995;52.618;13.488;2023-02-27T06:33:06;-2.10;1.00
13850;DHT22;6995;52.618;13.488;2023-02-27T06:35:32;-2.00;1.00
13850;DHT22;6995;52.618;13.488;2023-02-27T06:37:58;-1.80;1.00
13850;DHT22;6995;52.618;13.488;2023-02-27T06:40:24;-1.70;1.00
13850;DHT22;6995;52.618;13.488;2023-02-27T06:42:50;-1.70;1.00
13850;DHT22;6995;52.618;13.488;2023-02-27T06:45:16;-1.50;1.00
13850;DHT22;6995;52.618;13.488;2023-02-27T06:47:43;-1.40;1.00
13850;DHT22;6995;52.618;13.488;2023-02-27T06:50:10;-1.30;1.00
13850;DHT22;6995;52.618;13.488;2023-02-27T06:52:40;-1.20;1.00
13850;DHT22;6995;52.618;13.488;2023-02-27T06:55:13;-1.10;1.00
13850;DHT22;6995;52.618;13.488;2023-02-27T06:57:45;-0.90;1.40
13850;DHT22;6995;52.618;13.488;2023-02-27T07:00:12;-0.90;1.40
13850;DHT22;6995;52.618;13.488;2023-02-27T07:02:38;-1.00;1.40
13850;DHT22;6995;52.618;13.488;2023-02-27T07:05:04;-0.90;1.00
13850;DHT22;6995;52.618;13.488;2023-02-27T07:07:31;-0.90;1.00
13850;DHT22;6995;52.618;13.488;2023-02-27T07:09:57;-0.90;1.00
13850;DHT22;6995;52.618;13.488;2023-02-27T07:12:23;-0.70;1.00
13850;DHT22;6995;52.618;13.488;2023-02-27T07:14:48;-0.70;99.90
13850;DHT22;6995;52.618;13.488;2023-02-27T07:17:14;-0.80;99.90
13850;DHT22;6995;52.618;13.488;2023-02-27T07:19:40;-0.90;99.90
13850;DHT22;6995;52.618;13.488;2023-02-27T07:22:14;-0.90;1.00
13850;DHT22;6995;52.618;13.488;2023-02-27T07:24:43;-0.80;1.00
13850;DHT22;6995;52.618;13.488;2023-02-27T07:27:09;-0.60;1.00
13850;DHT22;6995;52.618;13.488;2023-02-27T07:29:34;-0.50;1.40
13850;DHT22;6995;52.618;13.488;2023-02-27T07:32:01;-0.50;99.90
13850;DHT22;6995;52.618;13.488;2023-02-27T07:34:27;-0.50;99.90
13850;DHT22;6995;52.618;13.488;2023-02-27T07:36:52;-0.40;99.90
13850;DHT22;6995;52.618;13.488;2023-02-27T07:39:18;-0.20;99.90
13850;DHT22;6995;52.618;13.488;2023-02-27T07:41:46;-0.10;99.90
13850;DHT22;6995;52.618;13.488;2023-02-27T07:44:11;0.00;1.40
13850;DHT22;6995;52.618;13.488;2023-02-27T07:46:38;0.00;99.90
13850;DHT22;6995;52.618;13.488;2023-02-27T07:49:03;0.10;99.90
13850;DHT22;6995;52.618;13.488;2023-02-27T07:51:29;0.20;99.90
13850;DHT22;6995;52.618;13.488;2023-02-27T07:53:58;0.40;99.90
13850;DHT22;6995;52.618;13.488;2023-02-27T07:56:25;0.50;99.90
13850;DHT22;6995;52.618;13.488;2023-02-27T07:58:50;0.60;99.90
13850;DHT22;6995;52.618;13.488;2023-02-27T08:01:16;0.50;99.90
13850;DHT22;6995;52.618;13.488;2023-02-27T08:03:42;0.60;99.90
13850;DHT22;6995;52.618;13.488;2023-02-27T08:06:07;0.70;99.90
13850;DHT22;6995;52.618;13.488;2023-02-27T08:08:33;0.70;99.90
13850;DHT22;6995;52.618;13.488;2023-02-27T08:10:59;0.50;99.90
13850;DHT22;6995;52.618;13.488;2023-02-27T08:13:25;0.50;99.90
13850;DHT22;6995;52.618;13.488;2023-02-27T08:16:00;0.60;99.90
13850;DHT22;6995;52.618;13.488;2023-02-27T08:18:35;0.60;99.90
13850;DHT22;6995;52.618;13.488;2023-02-27T08:21:04;0.60;99.90
13850;DHT22;6995;52.618;13.488;2023-02-27T08:23:31;0.70;99.90
13850;DHT22;6995;52.618;13.488;2023-02-27T08:25:59;0.90;99.90
13850;DHT22;6995;52.618;13.488;2023-02-27T08:28:25;1.10;99.90
13850;DHT22;6995;52.618;13.488;2023-02-27T08:30:52;1.30;99.90
13850;DHT22;6995;52.618;13.488;2023-02-27T08:33:18;1.30;99.90
13850;DHT22;6995;52.618;13.488;2023-02-27T08:35:44;1.30;99.90
13850;DHT22;6995;52.618;13.488;2023-02-27T08:38:10;1.40;99.90
13850;DHT22;6995;52.618;13.488;2023-02-27T08:40:36;1.60;99.90
13850;DHT22;6995;52.618;13.488;2023-02-27T08:43:01;1.60;99.90
13850;DHT22;6995;52.618;13.488;2023-02-27T08:45:30;1.70;99.90
13850;DHT22;6995;52.618;13.488;2023-02-27T08:47:56;1.90;99.90
13850;DHT22;6995;52.618;13.488;2023-02-27T08:50:34;2.00;99.90
13850;DHT22;6995;52.618;13.488;2023-02-27T08:53:00;2.20;99.90
13850;DHT22;6995;52.618;13.488;2023-02-27T08:55:25;2.20;99.90
13850;DHT22;6995;52.618;13.488;2023-02-27T08:57:53;2.40;99.90
13850;DHT22;6995;52.618;13.488;2023-02-27T09:00:19;2.40;99.90
13850;DHT22;6995;52.618;13.488;2023-02-27T09:02:45;2.40;99.90
13850;DHT22;6995;52.618;13.488;2023-02-27T09:05:14;2.30;99.90
13850;DHT22;6995;52.618;13.488;2023-02-27T09:07:39;2.50;99.90
13850;DHT22;6995;52.618;13.488;2023-02-27T09:10:06;2.80;99.90
13850;DHT22;6995;52.618;13.488;2023-02-27T09:12:32;2.80;99.90
13850;DHT22;6995;52.618;13.488;2023-02-27T09:14:58;2.80;99.90
13850;DHT22;6995;52.618;13.488;2023-02-27T09:17:24;3.00;99.90
13850;DHT22;6995;52.618;13.488;2023-02-27T09:19:49;3.10;99.90
13850;DHT22;6995;52.618;13.488;2023-02-27T09:22:16;3.20;99.90
13850;DHT22;6995;52.618;13.488;2023-02-27T09:24:42;3.20;99.90
13850;DHT22;6995;52.618;13.488;2023-02-27T09:27:08;3.20;99.90
13850;DHT22;6995;52.618;13.488;2023-02-27T09:29:34;3.40;99.90
13850;DHT22;6995;52.618;13.488;2023-02-27T09:31:59;3.60;99.90
13850;DHT22;6995;52.618;13.488;2023-02-27T09:34:25;3.70;99.90
13850;DHT22;6995;52.618;13.488;2023-02-27T09:36:51;3.80;99.90
13850;DHT22;6995;52.618;13.488;2023-02-27T09:39:17;3.80;99.90
13850;DHT22;6995;52.618;13.488;2023-02-27T09:42:00;3.70;99.90
13850;DHT22;6995;52.618;13.488;2023-02-27T09:44:38;3.70;99.90
13850;DHT22;6995;52.618;13.488;2023-02-27T09:47:11;3.90;99.90
13850;DHT22;6995;52.618;13.488;2023-02-27T09:49:53;4.00;99.90
13850;DHT22;6995;52.618;13.488;2023-02-27T09:52:21;4.30;99.90
13850;DHT22;6995;52.618;13.488;2023-02-27T09:54:49;4.40;99.90
13850;DHT22;6995;52.618;13.488;2023-02-27T09:57:20;4.60;99.90
13850;DHT22;6995;52.618;13.488;2023-02-27T09:59:55;4.90;99.90
13850;DHT22;6995;52.618;13.488;2023-02-27T10:05:15;5.10;99.90
13850;DHT22;6995;52.618;13.488;2023-02-27T10:15:57;5.10;99.90
13850;DHT22;6995;52.618;13.488;2023-02-27T10:18:44;5.20;99.90
13850;DHT22;6995;52.618;13.488;2023-02-27T10:21:32;4.80;99.90
13850;DHT22;6995;52.618;13.488;2023-02-27T10:26:49;5.10;99.90
13850;DHT22;6995;52.618;13.488;2023-02-27T10:29:39;5.40;99.90
13850;DHT22;6995;52.618;13.488;2023-02-27T10:32:28;5.50;99.90
13850;DHT22;6995;52.618;13.488;2023-02-27T10:38:05;5.50;99.90
13850;DHT22;6995;52.618;13.488;2023-02-27T17:10:41;4.20;99.90
13850;DHT22;6995;52.618;13.488;2023-02-27T17:15:45;4.20;99.90
13850;DHT22;6995;52.618;13.488;2023-02-27T17:18:43;4.20;99.90
13850;DHT22;6995;52.618;13.488;2023-02-27T19:20:15;2.90;99.90
13850;DHT22;6995;52.618;13.488;2023-02-27T19:23:11;2.80;99.90
13850;DHT22;6995;52.618;13.488;2023-02-27T19:25:43;2.80;99.90
13850;DHT22;6995;52.618;13.488;2023-02-27T22:13:52;2.50;99.90
13850;DHT22;6995;52.618;13.488;2023-02-27T22:19:37;2.40;99.90
13850;DHT22;6995;52.618;13.488;2023-02-27T22:22:46;2.30;99.90
13850;DHT22;6995;52.618;13.488;2023-02-27T22:26:15;2.20;99.90
13850;DHT22;6995;52.618;13.488;2023-02-27T22:29:52;2.20;99.90
13850;DHT22;6995;52.618;13.488;2023-02-27T22:33:33;2.20;99.90
13850;DHT22;6995;52.618;13.488;2023-02-27T22:40:27;2.30;99.90
13850;DHT22;6995;52.618;13.488;2023-02-27T22:44:25;2.20;99.90
13850;DHT22;6995;52.618;13.488;2023-02-27T22:47:38;2.20;99.90
